Time;durP1;ratioP1;P1;durP2;ratioP2;P2;SDS_P1;SDS_P2;PMS_P1;PMS_P2;Temp;Humidity;BMP_temperature;BMP_pressure;BME280_temperature;BME280_humidity;BME280_pressure;Samples;Min_cycle;Max_cycle;Signal;HPM_P1;HPM_P2
2021/07/13 00:01:23;;;;;;;3.88;2.22;;;19.00;99.90;;;;;;5061987;28;20040;-71
2021/07/13 00:03:51;;;;;;;5.07;2.25;;;19.00;99.90;;;;;;5079809;28;20385;-71
2021/07/13 00:06:17;;;;;;;4.65;2.30;;;19.00;99.90;;;;;;5084003;28;20459;-71
2021/07/13 00:08:43;;;;;;;5.43;1.73;;;19.00;99.90;;;;;;5080305;28;20127;-72
2021/07/13 00:11:08;;;;;;;3.72;2.40;;;19.00;99.90;;;;;;5083325;28;20048;-71
2021/07/13 00:13:34;;;;;;;5.40;2.42;;;19.00;99.90;;;;;;5079680;28;20440;-71
2021/07/13 00:15:59;;;;;;;3.22;1.88;;;19.00;99.90;;;;;;5082283;28;20392;-71
2021/07/13 00:18:25;;;;;;;3.35;2.17;;;19.00;99.90;;;;;;5080892;28;20086;-71
2021/07/13 00:20:50;;;;;;;4.03;2.00;;;19.00;99.90;;;;;;5080592;28;20083;-71
2021/07/13 00:23:16;;;;;;;4.53;2.75;;;19.00;99.90;;;;;;5081629;28;20032;-71
2021/07/13 00:25:42;;;;;;;5.35;2.47;;;19.00;99.90;;;;;;5079716;28;20119;-71
2021/07/13 00:28:08;;;;;;;5.32;2.60;;;19.00;99.90;;;;;;5082197;28;20028;-71
2021/07/13 00:30:33;;;;;;;4.28;2.50;;;19.00;99.90;;;;;;5079485;28;20112;-71
2021/07/13 00:32:59;;;;;;;3.80;2.53;;;19.00;99.90;;;;;;5082326;28;20024;-71
2021/07/13 00:35:25;;;;;;;4.35;2.53;;;19.00;99.90;;;;;;5079370;28;20052;-71
2021/07/13 00:37:50;;;;;;;5.18;3.30;;;18.90;99.90;;;;;;5080346;28;20037;-72
2021/07/13 00:40:20;;;;;;;5.05;2.55;;;18.90;99.90;;;;;;5078376;28;20064;-77
2021/07/13 00:42:51;;;;;;;6.27;2.70;;;19.00;99.90;;;;;;5081058;28;20036;-71
2021/07/13 00:45:18;;;;;;;4.80;2.50;;;18.90;99.90;;;;;;5080292;28;20029;-71
2021/07/13 00:47:48;;;;;;;5.97;2.67;;;18.90;99.90;;;;;;5081517;28;20048;-71
2021/07/13 00:50:15;;;;;;;4.43;3.30;;;18.90;99.90;;;;;;5079506;28;20647;-71
2021/07/13 00:52:40;;;;;;;4.85;2.90;;;18.90;99.90;;;;;;5081753;28;20036;-71
2021/07/13 00:55:07;;;;;;;6.03;3.08;;;18.90;99.90;;;;;;5078068;28;20043;-71
2021/07/13 00:57:33;;;;;;;6.60;3.58;;;18.90;99.90;;;;;;5081901;28;20036;-71
2021/07/13 00:59:59;;;;;;;5.68;3.50;;;18.90;99.90;;;;;;5060158;28;20036;-71
2021/07/13 01:02:25;;;;;;;4.75;3.20;;;18.90;99.90;;;;;;5079756;28;20533;-71
2021/07/13 01:04:58;;;;;;;6.82;3.97;;;18.80;99.90;;;;;;5081071;28;20044;-72
2021/07/13 01:07:37;;;;;;;6.53;4.03;;;18.80;99.90;;;;;;5060986;28;20033;-72
2021/07/13 01:10:11;;;;;;;5.65;4.28;;;18.80;99.90;;;;;;5074537;28;20037;-72
2021/07/13 01:13:00;;;;;;;6.55;4.03;;;18.80;99.90;;;;;;5075938;28;20040;-71
2021/07/13 01:15:30;;;;;;;5.18;4.05;;;18.80;99.90;;;;;;5078982;28;20078;-71
2021/07/13 01:18:02;;;;;;;5.90;3.75;;;18.80;99.90;;;;;;5081520;28;20499;-71
2021/07/13 01:20:54;;;;;;;7.15;4.18;;;18.70;99.90;;;;;;5078325;28;20091;-71
2021/07/13 01:23:46;;;;;;;8.05;4.85;;;18.80;99.90;;;;;;5076841;28;20115;-71
2021/07/13 01:26:45;;;;;;;6.60;4.93;;;18.70;99.90;;;;;;5076413;28;20032;-72
2021/07/13 01:29:17;;;;;;;10.30;5.07;;;18.70;99.90;;;;;;5076698;28;20059;-72
2021/07/13 01:31:47;;;;;;;7.32;5.13;;;18.70;99.90;;;;;;5078877;28;20151;-71
2021/07/13 01:34:24;;;;;;;8.77;6.03;;;18.70;99.90;;;;;;5079713;28;20395;-71
2021/07/13 01:36:54;;;;;;;10.40;6.20;;;18.70;99.90;;;;;;5080121;28;20052;-71
2021/07/13 01:39:22;;;;;;;8.93;5.05;;;18.70;99.90;;;;;;5079116;28;20072;-71
2021/07/13 01:41:49;;;;;;;11.05;5.95;;;18.70;99.90;;;;;;5079522;28;20063;-71
2021/07/13 01:44:18;;;;;;;8.18;5.63;;;18.60;99.90;;;;;;5079329;28;20074;-71
2021/07/13 01:46:44;;;;;;;10.90;6.13;;;18.50;99.90;;;;;;5061295;28;20036;-71
2021/07/13 01:49:10;;;;;;;10.02;5.38;;;18.50;99.90;;;;;;5078363;28;20028;-72
2021/07/13 01:51:38;;;;;;;9.02;5.60;;;18.50;99.90;;;;;;5080598;28;20052;-71
2021/07/13 01:54:07;;;;;;;11.57;6.32;;;18.40;99.90;;;;;;5060250;28;20646;-71
2021/07/13 01:56:35;;;;;;;10.60;6.70;;;18.40;99.90;;;;;;5080404;28;20060;-71
2021/07/13 01:59:03;;;;;;;10.55;6.63;;;18.40;99.90;;;;;;5077714;28;20029;-71
2021/07/13 02:01:31;;;;;;;10.65;7.00;;;18.40;99.90;;;;;;5077194;28;20067;-71
2021/07/13 02:03:57;;;;;;;11.48;7.03;;;18.40;99.90;;;;;;5074317;28;20020;-71
2021/07/13 02:06:25;;;;;;;12.75;6.57;;;18.40;99.90;;;;;;5076213;28;20097;-71
2021/07/13 02:08:59;;;;;;;12.32;7.35;;;18.40;99.90;;;;;;5078375;28;20523;-71
2021/07/13 02:11:27;;;;;;;13.27;8.10;;;18.30;99.90;;;;;;5080504;28;20032;-72
2021/07/13 02:13:53;;;;;;;13.77;8.00;;;18.40;99.90;;;;;;5080858;28;20120;-71
2021/07/13 02:16:19;;;;;;;16.63;8.18;;;18.30;99.90;;;;;;5077557;28;20132;-71
2021/07/13 02:18:46;;;;;;;11.52;7.60;;;18.40;99.90;;;;;;5079553;28;20040;-71
2021/07/13 02:21:14;;;;;;;13.23;8.05;;;18.40;99.90;;;;;;5079241;28;20035;-71
2021/07/13 02:23:43;;;;;;;14.15;8.25;;;18.30;99.90;;;;;;5078517;28;20040;-71
2021/07/13 02:26:12;;;;;;;16.05;8.02;;;18.30;99.90;;;;;;5079206;28;20035;-71
2021/07/13 02:28:47;;;;;;;12.73;8.55;;;18.30;99.90;;;;;;5077877;28;20032;-71
2021/07/13 02:31:27;;;;;;;12.70;8.18;;;18.30;99.90;;;;;;5059853;28;20039;-72
2021/07/13 02:34:22;;;;;;;13.47;7.87;;;18.30;99.90;;;;;;5079201;28;20036;-71
2021/07/13 02:36:50;;;;;;;14.07;7.60;;;18.40;99.90;;;;;;5075721;28;20075;-71
2021/07/13 02:39:18;;;;;;;14.50;8.55;;;18.40;99.90;;;;;;5061052;28;20032;-71
2021/07/13 02:41:47;;;;;;;16.90;9.63;;;18.50;99.90;;;;;;5078115;28;20670;-71
2021/07/13 02:44:13;;;;;;;21.50;12.88;;;18.60;99.90;;;;;;5078272;28;20101;-71
2021/07/13 02:46:43;;;;;;;24.20;13.07;;;18.70;99.90;;;;;;5078214;28;20455;-71
2021/07/13 02:49:21;;;;;;;22.60;12.70;;;18.70;99.90;;;;;;5078725;28;20040;-71
2021/07/13 02:51:48;;;;;;;26.73;13.75;;;18.80;99.90;;;;;;5059641;28;20040;-71
2021/07/13 02:54:18;;;;;;;29.90;16.05;;;18.80;99.90;;;;;;5061314;28;20037;-71
2021/07/13 02:56:44;;;;;;;29.70;15.00;;;18.90;99.90;;;;;;5059875;28;20052;-71
2021/07/13 02:59:12;;;;;;;32.00;15.95;;;18.90;99.90;;;;;;5080341;28;20476;-71
2021/07/13 03:01:39;;;;;;;33.78;17.42;;;18.90;99.90;;;;;;5082845;28;20044;-72
2021/07/13 03:04:05;;;;;;;34.22;17.58;;;18.90;99.90;;;;;;5083031;28;20039;-72
2021/07/13 03:06:32;;;;;;;39.28;19.65;;;19.00;99.90;;;;;;5062822;28;20032;-71
2021/07/13 03:08:58;;;;;;;34.47;18.45;;;18.90;99.90;;;;;;5083703;28;20020;-71
2021/07/13 03:11:24;;;;;;;40.90;20.23;;;18.90;99.90;;;;;;5062678;28;20116;-71
2021/07/13 03:13:50;;;;;;;40.90;20.08;;;19.00;99.90;;;;;;5083447;28;20024;-73
2021/07/13 03:16:16;;;;;;;43.17;21.13;;;19.10;99.90;;;;;;5081440;28;20031;-72
2021/07/13 03:18:42;;;;;;;45.08;21.00;;;19.10;99.90;;;;;;5064290;28;20127;-72
2021/07/13 03:21:09;;;;;;;42.80;21.48;;;19.10;99.90;;;;;;5081213;28;20054;-72
2021/07/13 03:23:38;;;;;;;39.67;21.02;;;19.20;99.90;;;;;;5064005;28;20028;-72
2021/07/13 03:26:06;;;;;;;42.88;20.58;;;19.20;99.90;;;;;;5082663;28;20032;-72
2021/07/13 03:28:32;;;;;;;47.15;22.83;;;19.30;99.90;;;;;;5063197;28;20025;-71
2021/07/13 03:30:59;;;;;;;42.30;21.23;;;19.40;99.90;;;;;;5083227;28;20035;-72
2021/07/13 03:33:25;;;;;;;43.22;20.35;;;19.40;99.90;;;;;;5061838;28;20102;-72
2021/07/13 03:35:54;;;;;;;41.10;19.88;;;19.40;99.90;;;;;;5073105;28;20399;-72
2021/07/13 03:38:20;;;;;;;40.67;21.20;;;19.40;99.90;;;;;;5083802;28;20111;-72
2021/07/13 03:40:48;;;;;;;43.10;20.58;;;19.40;99.90;;;;;;5079331;28;20560;-71
2021/07/13 03:43:15;;;;;;;41.08;20.25;;;19.50;99.90;;;;;;5081345;28;20127;-72
2021/07/13 03:45:41;;;;;;;38.03;19.80;;;19.50;99.90;;;;;;5082402;28;20098;-72
2021/07/13 03:48:10;;;;;;;37.65;19.70;;;19.40;99.90;;;;;;5063480;28;20039;-72
2021/07/13 03:50:36;;;;;;;39.75;18.83;;;19.50;99.90;;;;;;5081902;28;20041;-72
2021/07/13 03:53:03;;;;;;;37.28;18.75;;;19.50;99.90;;;;;;5064207;28;20514;-71
2021/07/13 03:55:29;;;;;;;39.00;19.38;;;19.50;99.90;;;;;;5080484;28;20064;-71
2021/07/13 03:57:56;;;;;;;41.15;19.52;;;19.50;99.90;;;;;;5083038;28;20385;-72
2021/07/13 04:00:24;;;;;;;37.40;19.17;;;19.50;99.90;;;;;;5071808;28;20485;-71
2021/07/13 04:02:49;;;;;;;37.85;18.85;;;19.60;99.90;;;;;;5076996;28;20488;-71
2021/07/13 04:05:16;;;;;;;41.10;20.42;;;19.60;99.90;;;;;;5080166;28;20047;-71
2021/07/13 04:07:42;;;;;;;41.25;19.98;;;19.60;99.90;;;;;;5082853;28;20704;-72
2021/07/13 04:10:12;;;;;;;36.25;19.13;;;19.60;99.90;;;;;;5079980;28;20036;-72
2021/07/13 04:12:38;;;;;;;39.03;18.52;;;19.60;99.90;;;;;;5081833;28;20047;-71
2021/07/13 04:15:06;;;;;;;38.80;18.98;;;19.60;99.90;;;;;;5081380;28;20509;-72
2021/07/13 04:17:31;;;;;;;36.42;18.70;;;19.60;99.90;;;;;;5080784;28;20047;-72
2021/07/13 04:19:57;;;;;;;37.88;19.85;;;19.60;99.90;;;;;;5082257;28;20111;-72
2021/07/13 04:22:23;;;;;;;37.53;19.45;;;19.60;99.90;;;;;;5084493;28;20399;-72
2021/07/13 04:24:48;;;;;;;37.65;19.58;;;19.60;99.90;;;;;;5075520;28;20603;-72
2021/07/13 04:27:14;;;;;;;35.20;18.75;;;19.70;99.90;;;;;;5082202;28;20028;-72
2021/07/13 04:29:40;;;;;;;35.08;19.15;;;19.70;99.90;;;;;;5080538;28;20028;-71
2021/07/13 04:32:07;;;;;;;35.40;17.83;;;19.70;99.90;;;;;;5079270;28;20036;-72
2021/07/13 04:34:34;;;;;;;33.85;17.92;;;19.70;99.90;;;;;;5076644;28;20090;-72
2021/07/13 04:37:00;;;;;;;35.17;18.13;;;19.70;99.90;;;;;;5053844;28;20040;-72
2021/07/13 04:39:25;;;;;;;34.95;17.77;;;19.70;99.90;;;;;;5058992;28;20487;-72
2021/07/13 04:41:51;;;;;;;33.47;17.60;;;19.70;99.90;;;;;;5074426;28;20040;-71
2021/07/13 04:44:16;;;;;;;31.83;16.80;;;19.70;99.90;;;;;;5072579;28;20052;-73
2021/07/13 04:46:42;;;;;;;35.50;16.20;;;19.80;99.90;;;;;;5056241;28;20547;-72
2021/07/13 04:49:08;;;;;;;30.05;16.23;;;19.80;99.90;;;;;;5055686;28;20374;-72
2021/07/13 04:51:34;;;;;;;33.15;15.73;;;19.80;99.90;;;;;;5057613;28;20032;-72
2021/07/13 04:54:00;;;;;;;31.73;15.55;;;19.80;99.90;;;;;;5055998;28;20552;-72
2021/07/13 04:56:26;;;;;;;30.73;15.10;;;19.80;99.90;;;;;;5071888;28;20045;-72
2021/07/13 04:58:51;;;;;;;36.40;14.85;;;19.80;99.90;;;;;;5053479;28;20033;-72
2021/07/13 05:01:17;;;;;;;28.70;14.38;;;19.90;99.90;;;;;;5071782;28;20076;-72
2021/07/13 05:03:43;;;;;;;25.35;14.00;;;20.00;99.90;;;;;;5072670;28;20032;-72
2021/07/13 05:06:08;;;;;;;27.88;14.13;;;19.90;99.90;;;;;;5058537;28;20408;-72
2021/07/13 05:08:34;;;;;;;23.73;12.88;;;19.90;99.90;;;;;;5073113;28;20036;-71
2021/07/13 05:10:59;;;;;;;29.70;15.15;;;19.90;99.90;;;;;;5059167;28;20036;-72
2021/07/13 05:13:25;;;;;;;26.67;13.75;;;20.00;99.90;;;;;;5073502;28;20036;-72
2021/07/13 05:15:51;;;;;;;25.23;13.23;;;20.00;99.90;;;;;;5068308;28;20060;-72
2021/07/13 05:18:17;;;;;;;23.95;13.93;;;20.00;99.90;;;;;;5070358;28;20400;-72
2021/07/13 05:20:50;;;;;;;29.70;13.15;;;20.10;99.90;;;;;;5070339;28;20429;-72
2021/07/13 05:23:16;;;;;;;24.13;12.48;;;20.10;99.90;;;;;;5070111;28;20039;-72
2021/07/13 05:25:42;;;;;;;24.35;12.73;;;20.10;99.90;;;;;;5058608;28;20443;-72
2021/07/13 05:28:11;;;;;;;27.55;12.88;;;20.20;99.90;;;;;;5069218;28;20028;-72
2021/07/13 05:30:41;;;;;;;28.30;13.60;;;20.20;99.90;;;;;;5058012;28;20063;-72
2021/07/13 05:33:08;;;;;;;22.88;12.35;;;20.30;99.90;;;;;;5070159;28;20086;-74
2021/07/13 05:35:33;;;;;;;22.77;11.98;;;20.30;99.90;;;;;;5070133;28;20127;-72
2021/07/13 05:37:59;;;;;;;23.30;12.90;;;20.30;99.90;;;;;;5071606;28;20060;-72
2021/07/13 05:40:25;;;;;;;23.40;12.32;;;20.30;99.90;;;;;;5057684;28;20032;-72
2021/07/13 05:42:52;;;;;;;21.45;12.40;;;20.40;99.90;;;;;;5057077;28;20032;-72
2021/07/13 05:45:17;;;;;;;24.98;12.73;;;20.30;99.90;;;;;;5069842;28;20036;-71
2021/07/13 05:47:43;;;;;;;21.92;11.35;;;20.40;99.90;;;;;;5054562;28;20090;-72
2021/07/13 05:50:10;;;;;;;23.50;12.18;;;20.50;99.90;;;;;;5069203;28;20036;-72
2021/07/13 05:52:36;;;;;;;23.45;11.75;;;20.40;99.90;;;;;;5057814;28;20489;-72
2021/07/13 05:55:03;;;;;;;19.38;10.73;;;20.50;99.90;;;;;;5071128;28;20040;-72
2021/07/13 05:57:28;;;;;;;21.58;11.55;;;20.50;99.90;;;;;;5069737;28;20071;-72
2021/07/13 05:59:54;;;;;;;17.83;11.10;;;20.50;99.90;;;;;;5071119;28;20594;-72
2021/07/13 06:02:20;;;;;;;21.90;9.80;;;20.50;99.90;;;;;;5071345;28;20032;-72
2021/07/13 06:04:45;;;;;;;19.30;10.38;;;20.60;99.90;;;;;;5072294;28;20392;-72
2021/07/13 06:07:11;;;;;;;19.52;10.60;;;20.60;99.90;;;;;;5069092;28;20016;-72
2021/07/13 06:09:37;;;;;;;21.90;11.05;;;20.60;99.90;;;;;;5072831;28;20458;-72
2021/07/13 06:12:03;;;;;;;17.00;9.43;;;20.70;99.90;;;;;;5071643;28;20029;-72
2021/07/13 06:14:28;;;;;;;19.20;11.00;;;20.80;99.90;;;;;;5070063;28;20041;-72
2021/07/13 06:16:54;;;;;;;19.60;9.80;;;20.80;99.90;;;;;;5072376;28;20036;-72
2021/07/13 06:19:20;;;;;;;17.70;10.25;;;20.90;99.90;;;;;;5057129;28;20032;-72
2021/07/13 06:21:46;;;;;;;16.63;9.40;;;20.90;99.90;;;;;;5068469;28;20033;-72
2021/07/13 06:24:12;;;;;;;14.90;9.35;;;21.00;99.90;;;;;;5053886;28;20028;-72
2021/07/13 06:26:38;;;;;;;17.73;10.30;;;21.10;99.90;;;;;;5068090;28;20111;-71
2021/07/13 06:29:03;;;;;;;17.63;10.00;;;21.10;99.90;;;;;;5069680;28;20032;-72
2021/07/13 06:31:29;;;;;;;17.77;9.57;;;21.10;99.90;;;;;;5071525;28;20044;-72
2021/07/13 06:33:55;;;;;;;17.27;10.32;;;21.10;99.90;;;;;;5057404;28;20090;-72
2021/07/13 06:36:20;;;;;;;16.52;9.98;;;21.10;99.90;;;;;;5072732;28;20032;-71
2021/07/13 06:38:46;;;;;;;18.63;9.85;;;21.00;99.90;;;;;;5061390;28;20032;-72
2021/07/13 06:41:12;;;;;;;19.77;9.90;;;21.00;99.90;;;;;;5077122;28;20037;-72
2021/07/13 06:43:39;;;;;;;17.65;9.63;;;21.10;99.90;;;;;;5076261;28;20051;-72
2021/07/13 06:46:04;;;;;;;16.45;9.32;;;21.10;99.90;;;;;;5060133;28;20041;-71
2021/07/13 06:48:30;;;;;;;17.80;8.90;;;21.20;99.90;;;;;;5063598;28;20039;-72
2021/07/13 06:50:56;;;;;;;15.63;9.45;;;21.20;99.90;;;;;;5057920;28;20141;-72
2021/07/13 06:53:21;;;;;;;17.50;9.45;;;21.30;99.90;;;;;;5073399;28;20489;-72
2021/07/13 06:55:47;;;;;;;17.55;10.07;;;21.30;99.90;;;;;;5075496;28;20103;-72
2021/07/13 06:58:13;;;;;;;19.27;10.38;;;21.40;99.90;;;;;;5073746;28;20111;-72
2021/07/13 07:00:39;;;;;;;14.60;8.88;;;21.40;99.90;;;;;;5063939;28;20109;-72
2021/07/13 07:03:05;;;;;;;16.02;9.27;;;21.50;99.90;;;;;;5075153;28;20563;-72
2021/07/13 07:05:31;;;;;;;16.92;9.48;;;21.60;99.90;;;;;;5074630;28;20033;-73
2021/07/13 07:07:56;;;;;;;18.77;10.07;;;21.70;99.90;;;;;;5074030;28;20566;-72
2021/07/13 07:10:22;;;;;;;16.90;9.73;;;21.80;99.90;;;;;;5076489;28;20033;-72
2021/07/13 07:12:49;;;;;;;21.38;10.88;;;21.70;99.90;;;;;;5061943;28;20040;-72
2021/07/13 07:15:16;;;;;;;16.35;9.32;;;21.90;99.90;;;;;;5074132;28;20096;-72
2021/07/13 07:17:49;;;;;;;19.00;9.88;;;21.90;99.90;;;;;;5072685;28;20062;-72
2021/07/13 07:20:29;;;;;;;18.42;10.35;;;21.90;99.90;;;;;;5057680;28;20128;-72
2021/07/13 07:22:58;;;;;;;18.77;9.18;;;21.90;99.90;;;;;;5075428;28;20044;-72
2021/07/13 07:25:24;;;;;;;18.25;10.15;;;21.80;99.90;;;;;;5062106;28;20504;-72
2021/07/13 07:27:55;;;;;;;20.17;9.98;;;21.80;99.90;;;;;;5072441;28;20043;-72
2021/07/13 07:30:23;;;;;;;20.55;11.07;;;21.80;99.90;;;;;;5075371;28;20032;-72
2021/07/13 07:32:49;;;;;;;25.42;10.32;;;21.60;99.90;;;;;;5073423;28;20052;-72
2021/07/13 07:35:15;;;;;;;19.98;9.90;;;21.60;99.90;;;;;;5077800;28;20036;-72
2021/07/13 07:37:41;;;;;;;21.45;10.38;;;21.40;99.90;;;;;;5071821;28;20386;-72
2021/07/13 07:40:10;;;;;;;19.13;10.68;;;21.30;99.90;;;;;;5070223;28;20051;-71
2021/07/13 07:42:36;;;;;;;17.80;10.27;;;21.30;99.90;;;;;;5072843;28;20047;-72
2021/07/13 07:45:02;;;;;;;20.50;10.18;;;21.40;99.90;;;;;;5074662;28;20040;-72
2021/07/13 07:47:28;;;;;;;17.58;9.10;;;21.40;99.90;;;;;;5074389;28;20059;-72
2021/07/13 07:49:53;;;;;;;18.40;9.80;;;21.50;99.90;;;;;;5072911;28;20599;-72
2021/07/13 07:52:19;;;;;;;21.73;9.75;;;21.60;99.90;;;;;;5073788;28;20032;-72
2021/07/13 07:54:45;;;;;;;18.83;9.30;;;21.60;99.90;;;;;;5072221;28;20032;-72
2021/07/13 07:57:11;;;;;;;18.90;10.13;;;21.60;99.90;;;;;;5076077;28;20090;-72
2021/07/13 07:59:36;;;;;;;16.63;9.98;;;21.60;99.90;;;;;;5073994;28;20039;-74
2021/07/13 08:02:02;;;;;;;16.48;8.90;;;21.50;99.90;;;;;;5071772;28;20488;-72
2021/07/13 08:04:28;;;;;;;19.85;9.65;;;21.60;99.90;;;;;;5072193;28;20103;-71
2021/07/13 08:06:54;;;;;;;20.40;10.40;;;21.50;99.90;;;;;;5071840;28;20032;-72
2021/07/13 08:09:20;;;;;;;21.25;10.30;;;21.40;99.90;;;;;;5073920;28;20033;-72
2021/07/13 08:11:45;;;;;;;22.55;10.85;;;21.50;99.90;;;;;;5074072;28;20573;-72
2021/07/13 08:14:11;;;;;;;21.50;10.50;;;21.50;99.90;;;;;;5075979;28;20031;-71
2021/07/13 08:16:37;;;;;;;21.77;11.60;;;21.40;99.90;;;;;;5071216;28;20066;-73
2021/07/13 08:19:04;;;;;;;20.42;11.02;;;21.30;99.90;;;;;;5056377;28;20136;-72
2021/07/13 08:21:30;;;;;;;21.73;11.32;;;21.30;99.90;;;;;;5077387;28;20068;-71
2021/07/13 08:23:55;;;;;;;21.45;11.52;;;21.30;99.90;;;;;;5075262;28;20071;-72
2021/07/13 08:26:23;;;;;;;20.52;10.52;;;21.40;99.90;;;;;;5072320;28;20067;-72
2021/07/13 08:28:49;;;;;;;17.58;9.50;;;21.40;99.90;;;;;;5058232;28;20093;-72
2021/07/13 08:31:14;;;;;;;23.90;12.45;;;21.50;99.90;;;;;;5057184;28;20064;-72
2021/07/13 08:33:40;;;;;;;20.33;10.73;;;21.60;99.90;;;;;;5076680;28;20047;-71
2021/07/13 08:36:05;;;;;;;20.30;10.20;;;21.70;99.90;;;;;;5074465;28;20043;-72
2021/07/13 08:38:31;;;;;;;20.13;10.75;;;21.70;99.90;;;;;;5072369;28;20534;-73
2021/07/13 08:40:57;;;;;;;20.05;10.70;;;21.70;99.90;;;;;;5073210;28;20044;-73
2021/07/13 08:43:23;;;;;;;19.55;11.23;;;21.80;99.90;;;;;;5074739;28;20037;-72
2021/07/13 08:45:52;;;;;;;19.75;10.93;;;21.70;99.90;;;;;;5070695;28;20039;-72
2021/07/13 08:48:20;;;;;;;18.75;10.15;;;21.70;99.90;;;;;;5058418;28;20124;-72
2021/07/13 08:50:46;;;;;;;17.92;9.40;;;21.70;99.90;;;;;;5072690;28;20134;-73
2021/07/13 08:53:11;;;;;;;17.67;9.48;;;21.80;99.90;;;;;;5057331;28;20041;-72
2021/07/13 08:55:37;;;;;;;18.65;10.35;;;21.90;99.90;;;;;;5074241;28;20033;-72
2021/07/13 08:58:03;;;;;;;17.48;10.00;;;22.00;99.90;;;;;;5070202;28;20845;-72
2021/07/13 09:00:28;;;;;;;20.52;9.90;;;22.00;99.90;;;;;;5074537;28;20474;-73
2021/07/13 09:03:07;;;;;;;19.55;9.73;;;22.00;99.90;;;;;;5056928;28;20044;-72
2021/07/13 09:05:40;;;;;;;19.02;10.68;;;22.10;99.90;;;;;;5053631;28;20031;-72
2021/07/13 09:08:12;;;;;;;20.58;10.10;;;22.10;99.90;;;;;;5065951;28;20392;-73
2021/07/13 09:10:38;;;;;;;18.45;9.95;;;22.10;99.90;;;;;;5065450;28;20040;-72
2021/07/13 09:13:04;;;;;;;21.85;9.90;;;22.00;99.90;;;;;;5050653;28;20040;-72
2021/07/13 09:15:30;;;;;;;22.10;10.52;;;21.90;99.90;;;;;;5070504;28;20053;-72
2021/07/13 09:17:55;;;;;;;21.50;11.07;;;21.90;99.90;;;;;;5055133;28;20037;-71
2021/07/13 09:20:29;;;;;;;23.85;10.85;;;21.80;99.90;;;;;;5075476;28;20051;-72
2021/07/13 09:22:54;;;;;;;18.98;10.23;;;21.80;99.90;;;;;;5056373;28;20040;-72
2021/07/13 09:25:26;;;;;;;24.15;11.07;;;21.60;99.90;;;;;;5060070;28;20087;-72
2021/07/13 09:28:25;;;;;;;24.10;11.52;;;21.50;99.90;;;;;;5071288;28;20050;-75
2021/07/13 09:30:56;;;;;;;20.98;10.48;;;21.40;99.90;;;;;;5006672;28;20753;-72
2021/07/13 09:33:26;;;;;;;24.17;10.93;;;21.40;99.90;;;;;;5059071;28;20059;-72
2021/07/13 09:35:58;;;;;;;;;;;21.30;99.90;;;;;;5071724;28;20032;-72
2021/07/13 09:38:24;;;;;;;18.88;9.45;;;21.40;99.90;;;;;;5068903;28;19916;-72
2021/07/13 09:41:18;;;;;;;20.27;9.93;;;21.40;99.90;;;;;;5074250;28;20044;-72
2021/07/13 09:44:10;;;;;;;16.75;8.77;;;21.40;99.90;;;;;;5072298;28;20046;-72
2021/07/13 09:46:41;;;;;;;17.60;9.45;;;21.50;99.90;;;;;;5053083;28;20492;-72
2021/07/13 09:49:27;;;;;;;17.98;9.30;;;21.60;99.90;;;;;;5057474;28;20036;-72
2021/07/13 09:52:02;;;;;;;21.20;9.30;;;21.60;99.90;;;;;;5069365;28;20040;-72
2021/07/13 09:54:46;;;;;;;20.02;10.07;;;21.50;99.90;;;;;;5074657;28;20136;-71
2021/07/13 09:57:16;;;;;;;18.75;9.98;;;21.60;99.90;;;;;;5071573;28;20033;-72
2021/07/13 09:59:47;;;;;;;17.38;8.93;;;21.50;99.90;;;;;;5056072;28;20040;-72
2021/07/13 10:02:16;;;;;;;16.55;8.85;;;21.70;99.90;;;;;;5072712;28;20031;-72
2021/07/13 10:04:42;;;;;;;15.02;8.90;;;21.70;99.90;;;;;;5073871;28;20043;-72
2021/07/13 10:07:18;;;;;;;15.10;8.23;;;21.70;99.90;;;;;;5057438;28;20463;-72
2021/07/13 10:10:00;;;;;;;16.52;8.13;;;21.80;99.90;;;;;;5054173;28;20416;-72
2021/07/13 10:12:27;;;;;;;13.95;8.73;;;21.80;99.90;;;;;;5052240;28;20039;-71
2021/07/13 10:14:56;;;;;;;13.75;7.97;;;21.80;99.90;;;;;;5076802;28;20063;-72
2021/07/13 10:17:27;;;;;;;14.20;9.02;;;21.80;99.90;;;;;;5060473;28;20056;-73
2021/07/13 10:20:07;;;;;;;17.48;8.63;;;21.80;99.90;;;;;;5074423;28;20050;-72
2021/07/13 10:22:35;;;;;;;14.30;8.27;;;21.80;99.90;;;;;;5054094;28;20025;-72
2021/07/13 10:25:01;;;;;;;17.80;8.65;;;21.60;99.90;;;;;;5059197;28;20016;-72
2021/07/13 10:27:32;;;;;;;14.90;8.02;;;21.60;99.90;;;;;;5080086;28;20028;-74
2021/07/13 10:30:03;;;;;;;15.68;8.10;;;21.50;99.90;;;;;;5070643;28;20499;-72
2021/07/13 10:32:31;;;;;;;13.65;8.32;;;21.40;99.90;;;;;;5052150;28;20755;-72
2021/07/13 10:35:04;;;;;;;15.88;8.30;;;21.30;99.90;;;;;;5070172;28;20039;-72
2021/07/13 10:37:34;;;;;;;15.80;8.25;;;21.40;99.90;;;;;;5055652;28;20028;-70
2021/07/13 10:40:06;;;;;;;14.57;7.55;;;21.40;99.90;;;;;;5076692;28;20367;-71
2021/07/13 10:42:44;;;;;;;15.57;8.25;;;21.40;99.90;;;;;;5060498;28;20127;-70
2021/07/13 10:45:29;;;;;;;14.93;8.55;;;21.40;99.90;;;;;;5078100;28;20029;-70
2021/07/13 10:48:19;;;;;;;15.43;7.90;;;21.40;99.90;;;;;;5060584;28;20419;-70
2021/07/13 10:51:03;;;;;;;14.55;7.32;;;21.60;99.90;;;;;;5060451;28;20035;-70
2021/07/13 10:53:35;;;;;;;13.40;7.10;;;21.60;99.90;;;;;;5061971;28;20119;-71
2021/07/13 10:56:10;;;;;;;13.77;7.60;;;21.70;99.90;;;;;;5076557;28;20028;-70
2021/07/13 10:58:36;;;;;;;14.75;7.63;;;21.70;99.90;;;;;;5076295;28;20064;-71
2021/07/13 11:01:03;;;;;;;13.68;8.00;;;21.70;99.90;;;;;;5073609;28;20064;-70
2021/07/13 11:03:32;;;;;;;14.45;7.90;;;21.70;99.90;;;;;;5060122;28;20493;-70
2021/07/13 11:05:59;;;;;;;16.67;8.43;;;21.60;99.90;;;;;;5057821;28;20040;-70
2021/07/13 11:11:09;;;;;;;14.15;7.97;;;21.60;99.90;;;;;;5071197;28;20039;-70
2021/07/13 11:13:36;;;;;;;16.65;8.40;;;21.50;99.90;;;;;;5071075;28;20110;-71
2021/07/13 11:16:03;;;;;;;17.45;9.07;;;21.50;99.90;;;;;;5071260;28;20095;-71
2021/07/13 11:18:35;;;;;;;14.40;7.70;;;21.60;99.90;;;;;;5074422;28;20028;-70
2021/07/13 11:21:24;;;;;;;18.17;8.90;;;21.60;99.90;;;;;;5062130;28;20036;-70
2021/07/13 11:23:55;;;;;;;18.40;8.57;;;21.50;99.90;;;;;;5078730;28;20036;-70
2021/07/13 11:26:22;;;;;;;17.27;8.48;;;21.50;99.90;;;;;;5074158;28;20112;-71
2021/07/13 11:28:56;;;;;;;18.10;8.75;;;21.40;99.90;;;;;;5065256;28;20124;-71
2021/07/13 11:31:27;;;;;;;16.90;8.63;;;21.40;99.90;;;;;;5057895;28;20052;-71
2021/07/13 11:33:58;;;;;;;23.35;10.63;;;21.50;99.90;;;;;;5057647;28;20045;-71
2021/07/13 11:36:25;;;;;;;;;;;21.40;99.90;;;;;;5068270;28;20037;-70
2021/07/13 11:38:50;;;;;;;14.65;8.80;;;21.40;99.90;;;;;;5060205;28;19958;-71
2021/07/13 11:41:16;;;;;;;14.48;8.70;;;21.50;99.90;;;;;;5068203;28;20051;-71
2021/07/13 11:43:43;;;;;;;18.73;9.77;;;21.40;99.90;;;;;;5073278;28;20040;-71
2021/07/13 11:46:17;;;;;;;16.23;8.98;;;21.30;99.90;;;;;;5052383;28;20052;-72
2021/07/13 11:48:54;;;;;;;20.27;9.15;;;21.40;99.90;;;;;;5074118;28;20028;-72
2021/07/13 11:51:28;;;;;;;18.70;9.63;;;21.40;99.90;;;;;;5056833;28;20044;-71
2021/07/13 11:54:08;;;;;;;20.75;10.02;;;21.40;99.90;;;;;;5074172;28;20043;-71
2021/07/13 11:56:36;;;;;;;17.55;9.48;;;21.40;99.90;;;;;;5058623;28;20398;-72
2021/07/13 11:59:03;;;;;;;16.60;9.88;;;21.50;99.90;;;;;;5056138;28;20028;-71
2021/07/13 12:01:31;;;;;;;18.48;10.05;;;21.50;99.90;;;;;;5064586;28;20032;-72
2021/07/13 12:04:02;;;;;;;19.10;9.85;;;21.50;99.90;;;;;;5062008;28;20419;-71
2021/07/13 12:06:28;;;;;;;20.42;10.20;;;21.50;99.90;;;;;;5061171;28;20118;-71
2021/07/13 12:09:07;;;;;;;18.08;9.68;;;21.50;99.90;;;;;;5074292;28;20052;-72
2021/07/13 12:11:35;;;;;;;18.00;9.95;;;21.40;99.90;;;;;;5059300;28;20028;-71
2021/07/13 12:14:02;;;;;;;14.90;8.70;;;21.40;99.90;;;;;;5060230;28;20029;-71
2021/07/13 12:16:33;;;;;;;15.38;8.82;;;21.40;99.90;;;;;;5056711;28;20089;-71
2021/07/13 12:19:02;;;;;;;14.55;8.50;;;21.40;99.90;;;;;;5072204;28;20025;-71
2021/07/13 12:21:29;;;;;;;17.33;9.05;;;21.30;99.90;;;;;;5061442;28;20110;-71
2021/07/13 12:23:56;;;;;;;18.52;9.27;;;21.30;99.90;;;;;;5075060;28;20400;-72
2021/07/13 12:26:33;;;;;;;18.80;9.25;;;21.20;99.90;;;;;;5060526;28;20036;-71
2021/07/13 12:29:01;;;;;;;16.85;8.18;;;21.30;99.90;;;;;;5059393;28;20133;-71
2021/07/13 12:31:27;;;;;;;17.85;8.80;;;21.30;99.90;;;;;;5060815;28;20040;-72
2021/07/13 12:33:53;;;;;;;16.75;8.68;;;21.30;99.90;;;;;;5058887;28;20028;-71
2021/07/13 12:36:29;;;;;;;15.40;8.23;;;21.20;99.90;;;;;;5063887;28;20032;-78
2021/07/13 12:38:56;;;;;;;19.20;9.05;;;21.30;99.90;;;;;;5073207;28;20558;-71
2021/07/13 12:41:26;;;;;;;21.50;9.27;;;21.30;99.90;;;;;;5071712;28;20044;-71
2021/07/13 12:43:52;;;;;;;13.80;7.90;;;21.30;99.90;;;;;;5071087;28;20033;-71